• Join FlightAware (Why Join?)
  • Login
  • US Flag 
11:35AM EDT


 

Airport Tracker/Info


-or-


 

Live Flight TrackerFlight Track Log ✈ C-GEJD ✈ 26-Sep-2013 ✈ CYYT - CYUL

Flight Track Log - Related Links

Times and Time Zones

All times are in EDT time to prevent confusion due to time zone crossing. See the C-GEJD flight status page for this flight to view local times or setup timezone preferences in your user account.

Time Position Orientation Groundspeed Altitude Reporting Facility
EDT Latitude Longitude Course Direction KTS MPH feet Rate Location/Type
01:22PM 47.6167 -52.7000 90° East 90 104 1,300  Level Gander Center
01:23PM 47.6167 -52.6167 90° East 150 173 4,700 3,540 Climbing Gander Center
01:24PM 47.6500 -52.6833 307° West 250 288 8,400 3,420 Climbing Gander Center
01:25PM 47.6333 -52.8000 258° West 280 322 11,600 3,120 Climbing Gander Center
01:26PM 47.6333 -52.9167 270° West 310 357 14,700 3,600 Climbing Gander Center
01:27PM 47.6333 -53.0667 270° West 340 391 18,800 3,540 Climbing Gander Center
01:28PM 47.6333 -53.2167 270° West 360 414 21,800 2,760 Climbing Gander Center
01:29PM 47.6333 -53.3667 270° West 380 437 24,400 2,280 Climbing Gander Center
01:30PM 47.6500 -53.5333 279° West 410 472 26,400 1,800 Climbing Gander Center
01:31PM 47.6500 -53.7333 270° West 450 518 28,100 1,860 Climbing Gander Center
01:32PM 47.6333 -53.9333 263° West 470 541 30,200 2,040 Climbing Gander Center
01:33PM 47.6333 -54.1333 270° West 480 552 32,200 2,100 Climbing Gander Center
01:34PM 47.6333 -54.3333 270° West 480 552 34,400 1,980 Climbing Gander Center
01:35PM 47.6333 -54.5167 270° West 470 541 36,200 1,680 Climbing Gander Center
01:36PM 47.6333 -54.6833 270° West 450 518 37,800 1,500 Climbing Gander Center
01:37PM 47.6333 -54.8833 270° West 440 506 39,200 1,080 Climbing Gander Center
01:38PM 47.6167 -55.0500 262° West 440 506 40,000 720 Climbing Gander Center
01:39PM 47.6333 -55.2333 278° West 440 506 40,700 660 Climbing Gander Center
01:40PM 47.6333 -55.4333 270° West 440 506 41,400 600 Climbing Gander Center
01:41PM 47.6167 -55.6000 262° West 440 506 42,000 540 Climbing Gander Center
01:42PM 47.6167 -55.8000 270° West 450 518 42,500 480 Climbing Gander Center
01:43PM 47.6167 -55.9833 270° West 450 518 43,000 240 Climbing Gander Center
01:44PM 47.6167 -56.1833 270° West 450 518 43,000  Level Gander Center
01:44PM 47.6167 -56.3000 270° West 450 518 43,000  Level Moncton Center
01:45PM 47.6167 -56.5000 270° West 460 529 43,000  Level Moncton Center
01:46PM 47.6000 -56.6667 262° West 450 518 43,000  Level Moncton Center
01:47PM 47.6000 -56.8667 270° West 450 518 43,000  Level Moncton Center
01:48PM 47.6000 -57.0500 270° West 460 529 43,000  Level Moncton Center
01:49PM 47.5833 -57.2500 263° West 450 518 43,000  Level Moncton Center
01:50PM 47.5833 -57.4167 270° West 460 529 43,000  Level Moncton Center
01:51PM 47.5667 -57.6167 263° West 460 529 43,000  Level Moncton Center
01:52PM 47.5667 -57.8000 270° West 460 529 43,000  Level Moncton Center
01:53PM 47.5500 -58.0000 263° West 460 529 43,000  Level Moncton Center
01:54PM 47.5500 -58.2000 270° West 460 529 43,000  Level Moncton Center
01:57PM 47.5333 -58.6167 267° West 470 541 43,000  Level Gander Center
01:58PM 47.5167 -58.8167 263° West 470 541 43,000  Level Gander Center
01:59PM 47.5167 -59.0000 270° West 460 529 43,000  Level Gander Center
02:00PM 47.5167 -59.1833 270° West 470 541 43,000  Level Gander Center
02:01PM 47.5000 -59.3833 263° West 470 541 43,000  Level Gander Center
02:02PM 47.4833 -59.5833 263° West 470 541 43,000  Level Gander Center
02:03PM 47.4833 -59.7500 270° West 470 541 43,000  Level Gander Center
02:04PM 47.4667 -59.9500 263° West 460 529 43,000  Level Gander Center
02:05PM 47.4500 -60.1167 262° West 460 529 43,000  Level Gander Center
02:06PM 47.4500 -60.3167 270° West 460 529 43,000  Level Gander Center
02:07PM 47.4500 -60.5167 270° West 470 541 43,000  Level Gander Center
02:08PM 47.4333 -60.7167 263° West 460 529 43,000  Level Gander Center
02:09PM 47.4167 -60.8833 262° West 450 518 43,000  Level Gander Center
02:10PM 47.4000 -61.0833 263° West 450 518 43,000  Level Gander Center
02:11PM 47.4000 -61.2500 270° West 460 529 43,000  Level Gander Center
02:12PM 47.3833 -61.4500 263° West 460 529 43,000  Level Gander Center
02:13PM 47.3667 -61.6500 263° West 460 529 43,000  Level Gander Center
02:14PM 47.3500 -61.8500 263° West 470 541 43,000  Level Gander Center
02:15PM 47.3500 -62.0167 270° West 470 541 43,000  Level Gander Center
02:16PM 47.3333 -62.2167 263° West 470 541 43,000  Level Gander Center
02:17PM 47.3000 -62.4167 256° West 470 541 43,000  Level Gander Center
02:18PM 47.2833 -62.5833 262° West 470 541 43,000  Level Gander Center
02:19PM 47.2833 -62.8167 270° West 470 541 43,000  Level Gander Center
02:20PM 47.2667 -62.9833 262° West 470 541 43,000  Level Gander Center
02:21PM 47.2500 -63.1833 263° West 470 541 43,000  Level Gander Center
02:22PM 47.2333 -63.3667 262° West 460 529 43,000  Level Gander Center
02:23PM 47.2167 -63.5667 263° West 460 529 43,000  Level Gander Center
02:24PM 47.2000 -63.7333 262° West 460 529 43,000  Level Gander Center
02:24PM 47.1833 -63.8833 261° West 460 529 43,000  Level Moncton Center
02:25PM 47.1667 -64.0833 263° West 460 529 43,000  Level Moncton Center
02:26PM 47.1500 -64.2500 262° West 460 529 43,000  Level Moncton Center
02:27PM 47.1333 -64.4500 263° West 460 529 43,000  Level Moncton Center
02:28PM 47.1167 -64.6167 262° West 460 529 43,000  Level Moncton Center
02:29PM 47.1000 -64.8167 263° West 460 529 43,000  Level Moncton Center
02:30PM 47.0833 -64.9833 262° West 460 529 43,000  Level Moncton Center
02:31PM 47.0667 -65.1833 263° West 460 529 43,000  Level Moncton Center
02:32PM 47.0500 -65.3833 263° West 460 529 43,000  Level Moncton Center
02:33PM 47.0167 -65.5500 254° West 460 529 43,000  Level Moncton Center
02:34PM 47.0000 -65.7500 263° West 460 529 43,000  Level Moncton Center
02:35PM 46.9833 -65.9167 262° West 460 529 43,000  Level Moncton Center
02:36PM 46.9667 -66.1167 263° West 460 529 43,000  Level Moncton Center
02:37PM 46.9500 -66.2833 262° West 460 529 43,000  Level Moncton Center
02:38PM 46.9333 -66.4833 263° West 460 529 43,000  Level Moncton Center
02:39PM 46.9000 -66.6500 254° West 460 529 43,000  Level Moncton Center
02:40PM 46.8833 -66.8500 263° West 460 529 43,000  Level Moncton Center
02:41PM 46.8667 -67.0333 262° West 460 529 43,000  Level Moncton Center
02:42PM 46.8333 -67.2167 255° West 460 529 43,000  Level Moncton Center
02:43PM 46.7667 -67.3833 240° Southwest 460 529 43,000  Level Moncton Center
02:44PM 46.7333 -67.5667 255° West 460 529 43,000  Level Moncton Center
02:45PM 46.7194 -67.7133 262° West 472 543 43,000  Level Boston Center
02:46PM 46.6764 -67.8925 251° West 472 543 43,000  Level Boston Center
02:47PM 46.6297 -68.0897 251° West 480 552 43,000  Level Boston Center
02:48PM 46.5883 -68.2681 251° West 475 547 43,000  Level Boston Center
02:49PM 46.5444 -68.4433 250° West 470 541 43,000  Level Boston Center
02:50PM 46.5003 -68.6183 250° West 470 541 43,000  Level Boston Center
02:51PM 46.4581 -68.7931 251° West 470 541 43,000  Level Boston Center
02:52PM 46.4153 -68.9675 250° West 470 541 43,000  Level Boston Center
02:53PM 46.3703 -69.1417 250° West 470 541 43,000  Level Boston Center
02:54PM 46.3289 -69.3003 249° West 470 541 43,000  Level Boston Center
02:55PM 46.2836 -69.4769 250° West 470 541 43,000  Level Boston Center
02:57PM 46.2400 -69.6472 250° West 470 541 43,000  Level Boston Center
02:58PM 46.1864 -69.8597 250° West 470 541 43,000  Level Boston Center
02:59PM 46.1403 -70.0325 249° West 475 547 43,000  Level Boston Center
02:59PM 46.0833 -70.1667 239° Southwest 460 529 43,000  Level Montreal Center
03:00PM 46.0500 -70.3333 254° West 460 529 43,000  Level Montreal Center
03:01PM 46.0000 -70.5167 249° West 460 529 43,000  Level Montreal Center
03:02PM 45.9500 -70.6833 247° West 460 529 43,000  Level Montreal Center
03:03PM 45.9000 -70.8667 249° West 460 529 43,000  Level Montreal Center
03:04PM 45.9000 -71.0333 270° West 450 518 43,000 -300 Level Montreal Center
03:05PM 45.8667 -71.2167 255° West 450 518 42,500 -1,440 Descending Montreal Center
03:06PM 45.8667 -71.4000 270° West 440 506 40,200 -2,400 Descending Montreal Center
03:07PM 45.8500 -71.5667 262° West 430 495 37,700 -2,520 Descending Montreal Center
03:08PM 45.8333 -71.7333 262° West 430 495 35,200 -2,460 Descending Montreal Center
03:09PM 45.8167 -71.9000 262° West 420 483 32,800 -2,460 Descending Montreal Center
03:10PM 45.8000 -72.0667 262° West 420 483 30,300 -2,460 Descending Montreal Center
03:11PM 45.7833 -72.2500 263° West 430 495 27,900 -2,520 Descending Montreal Center
03:12PM 45.7667 -72.4167 262° West 440 506 25,300 -2,640 Descending Montreal Center
03:13PM 45.7500 -72.5833 262° West 440 506 22,700 -2,520 Descending Montreal Center
03:14PM 45.7333 -72.7500 262° West 430 495 20,300 -2,460 Descending Montreal Center
03:15PM 45.7167 -72.9167 262° West 400 460 17,800 -2,340 Descending Montreal Center
03:16PM 45.7000 -73.0667 261° West 360 414 15,700 -2,040 Descending Montreal Center
03:17PM 45.6667 -73.1833 248° West 320 368 13,800 -1,920 Descending Montreal Center
03:18PM 45.6333 -73.2833 245° Southwest 300 345 11,900 -1,800 Descending Montreal Center
03:19PM 45.5833 -73.3833 234° Southwest 290 334 10,200 -1,740 Descending Montreal Center
03:20PM 45.5333 -73.4500 223° Southwest 280 322 8,500 -1,140 Descending Montreal Center
03:21PM 45.4667 -73.5333 221° Southwest 270 311 8,000 -600 Descending Montreal Center
03:22PM 45.4333 -73.6000 235° Southwest 230 265 7,300 -2,160 Descending Montreal Center
03:23PM 45.3667 -73.6833 221° Southwest 250 288 3,700 -2,160 Descending Montreal Center
03:24PM 45.3500 -73.7333 245° Southwest 180 207 3,000 -540 Descending Montreal Center
03:25PM 45.3667 -73.7667 305° West 140 161 2,700 -900 Descending Montreal Center
03:26PM 45.4000 -73.7667 360° North 140 161 1,300 -1,080 Descending Montreal Center
03:27PM 45.4333 -73.7500 19° North 130 150 600 -600 Descending Montreal Center
03:28PM 45.4500 -73.7167 55° Northeast 100 115 100 -300 Descending Montreal Center
03:29PM 45.4500 -73.7000 90° East 120 138 100  Level Montreal Center